Time;durP1;ratioP1;P1;durP2;ratioP2;P2;SDS_P1;SDS_P2;PMS_P1;PMS_P2;Temp;Humidity;BMP_temperature;BMP_pressure;BME280_temperature;BME280_humidity;BME280_pressure;Samples;Min_cycle;Max_cycle;Signal;HPM_P1;HPM_P2
2023/10/16 00:00:30;;;;;;;7.15;2.30;;;;;;;;;;4972776;28;20026;-79
2023/10/16 00:02:59;;;;;;;7.65;2.40;;;;;;;;;;4966391;28;20035;-79
2023/10/16 00:05:38;;;;;;;5.80;2.50;;;;;;;;;;4970679;28;20081;-81
2023/10/16 00:08:07;;;;;;;7.78;2.53;;;;;;;;;;4966111;28;20053;-79
2023/10/16 00:10:34;;;;;;;7.25;2.47;;;;;;;;;;4955746;28;20022;-78
2023/10/16 00:13:10;;;;;;;6.40;2.58;;;;;;;;;;4970514;28;20026;-77
2023/10/16 00:15:49;;;;;;;6.30;2.40;;;;;;;;;;4966769;28;20022;-80
2023/10/16 00:18:18;;;;;;;7.82;2.60;;;;;;;;;;4966788;28;20038;-79
2023/10/16 00:20:47;;;;;;;7.78;2.80;;;;;;;;;;4970067;28;20030;-79
2023/10/16 00:23:12;;;;;;;6.57;2.42;;;;;;;;;;4967466;28;20021;-79
2023/10/16 00:25:39;;;;;;;7.25;2.40;;;;;;;;;;4980329;28;20130;-78
2023/10/16 00:28:06;;;;;;;8.15;2.15;;;;;;;;;;4974555;28;20182;-77
2023/10/16 00:30:32;;;;;;;7.90;2.47;;;;;;;;;;4979424;28;20621;-80
2023/10/16 00:32:58;;;;;;;5.55;2.30;;;;;;;;;;4974941;28;20088;-76
2023/10/16 00:35:24;;;;;;;8.43;2.30;;;;;;;;;;4978289;28;20045;-78
2023/10/16 00:37:50;;;;;;;6.35;2.28;;;;;;;;;;4971153;28;20713;-77
2023/10/16 00:40:29;;;;;;;6.55;2.70;;;;;;;;;;4966391;28;20093;-77
2023/10/16 00:42:55;;;;;;;7.53;2.50;;;;;;;;;;4973071;28;20030;-77
2023/10/16 00:45:20;;;;;;;7.95;2.42;;;;;;;;;;4962332;28;20056;-78
2023/10/16 00:47:47;;;;;;;7.35;2.40;;;;;;;;;;4976257;28;20061;-79
2023/10/16 00:50:14;;;;;;;6.97;2.30;;;;;;;;;;4969568;28;20030;-78
2023/10/16 00:52:42;;;;;;;8.40;2.58;;;;;;;;;;4973650;28;20049;-78
2023/10/16 00:55:11;;;;;;;5.20;2.20;;;;;;;;;;4969439;28;20099;-79
2023/10/16 00:57:39;;;;;;;4.22;2.08;;;;;;;;;;4979537;28;20023;-77
2023/10/16 01:00:12;;;;;;;6.75;2.33;;;;;;;;;;4971499;28;20010;-78
2023/10/16 01:02:40;;;;;;;7.13;2.00;;;;;;;;;;4977838;28;20129;-78
2023/10/16 01:05:07;;;;;;;7.40;2.10;;;;;;;;;;4971313;28;20015;-79
2023/10/16 01:07:36;;;;;;;8.38;2.33;;;;;;;;;;4968579;28;20049;-77
2023/10/16 01:10:10;;;;;;;4.68;2.00;;;;;;;;;;4971056;28;20117;-77
2023/10/16 01:12:37;;;;;;;6.97;2.13;;;;;;;;;;4975064;28;20018;-78
2023/10/16 01:15:06;;;;;;;4.15;2.10;;;;;;;;;;4969934;28;20271;-77
2023/10/16 01:17:34;;;;;;;7.07;2.40;;;;;;;;;;4953261;28;20145;-78
2023/10/16 01:20:00;;;;;;;6.68;2.10;;;;;;;;;;4974038;28;20034;-78
2023/10/16 01:22:29;;;;;;;6.50;2.58;;;;;;;;;;4976543;28;20029;-78
2023/10/16 01:24:59;;;;;;;5.00;2.40;;;;;;;;;;4970721;28;20065;-77
2023/10/16 01:27:29;;;;;;;5.78;2.28;;;;;;;;;;4966872;28;20117;-78
2023/10/16 01:30:17;;;;;;;5.78;1.90;;;;;;;;;;4972505;28;20105;-78
2023/10/16 01:32:41;;;;;;;5.32;1.90;;;;;;;;;;4976971;28;20038;-77
2023/10/16 01:35:08;;;;;;;8.23;2.25;;;;;;;;;;4966393;28;20027;-78
2023/10/16 01:37:41;;;;;;;4.90;1.95;;;;;;;;;;4977621;28;20096;-78
2023/10/16 01:43:03;;;;;;;7.90;2.00;;;;;;;;;;4966466;28;20038;-78
2023/10/16 01:45:30;;;;;;;5.05;1.80;;;;;;;;;;4972556;28;20036;-78
2023/10/16 01:47:55;;;;;;;3.92;1.77;;;;;;;;;;4997410;28;20030;-78
2023/10/16 01:50:21;;;;;;;6.45;1.90;;;;;;;;;;4966902;28;20091;-78
2023/10/16 01:52:49;;;;;;;9.32;1.83;;;;;;;;;;4971939;28;20026;-78
2023/10/16 01:55:19;;;;;;;7.10;1.80;;;;;;;;;;4975110;28;20029;-78
2023/10/16 01:57:44;;;;;;;4.15;1.73;;;;;;;;;;4966069;28;20022;-79
2023/10/16 02:00:16;;;;;;;5.72;2.03;;;;;;;;;;4967613;28;20088;-78
2023/10/16 02:02:42;;;;;;;5.38;1.70;;;;;;;;;;4969769;28;20039;-78
2023/10/16 02:05:10;;;;;;;7.20;1.90;;;;;;;;;;4974151;28;20103;-80
2023/10/16 02:07:41;;;;;;;3.63;1.70;;;;;;;;;;4980412;28;20113;-79
2023/10/16 02:10:11;;;;;;;3.45;1.88;;;;;;;;;;4980140;28;20018;-79
2023/10/16 02:12:38;;;;;;;7.25;2.10;;;;;;;;;;4978188;28;20018;-78
2023/10/16 02:15:06;;;;;;;4.03;1.70;;;;;;;;;;4974410;28;20378;-81
2023/10/16 02:17:32;;;;;;;7.55;1.80;;;;;;;;;;4993739;28;20022;-78
2023/10/16 02:19:57;;;;;;;6.13;2.20;;;;;;;;;;4987232;28;20018;-78
2023/10/16 02:22:23;;;;;;;5.38;1.58;;;;;;;;;;4979689;28;20117;-79
2023/10/16 02:24:49;;;;;;;4.07;1.83;;;;;;;;;;4987896;28;20058;-79
2023/10/16 02:27:18;;;;;;;5.90;1.70;;;;;;;;;;4977307;28;20060;-78
2023/10/16 02:29:45;;;;;;;6.10;1.80;;;;;;;;;;4989597;28;20022;-79
2023/10/16 02:32:12;;;;;;;10.07;1.90;;;;;;;;;;4968081;28;20030;-78
2023/10/16 02:34:37;;;;;;;4.93;2.08;;;;;;;;;;4973340;28;20096;-78
2023/10/16 02:37:06;;;;;;;6.47;2.10;;;;;;;;;;4981740;28;20767;-79
2023/10/16 02:39:37;;;;;;;5.45;2.15;;;;;;;;;;4985599;28;20030;-78
2023/10/16 02:42:07;;;;;;;7.30;1.90;;;;;;;;;;4982081;28;20648;-78
2023/10/16 02:44:38;;;;;;;5.88;1.80;;;;;;;;;;4986758;28;20181;-78
2023/10/16 02:47:06;;;;;;;4.75;2.17;;;;;;;;;;4986168;28;20730;-78
2023/10/16 02:49:33;;;;;;;5.35;2.13;;;;;;;;;;4989214;28;20371;-79
2023/10/16 02:51:59;;;;;;;11.73;2.40;;;;;;;;;;4977656;28;20026;-78
2023/10/16 02:54:24;;;;;;;6.28;2.70;;;;;;;;;;4975346;28;20039;-79
2023/10/16 02:56:54;;;;;;;5.15;2.05;;;;;;;;;;4977389;28;20041;-78
2023/10/16 02:59:19;;;;;;;5.82;2.13;;;;;;;;;;4970167;28;20022;-79
2023/10/16 03:01:45;;;;;;;6.15;2.17;;;;;;;;;;4983166;28;20425;-79
2023/10/16 03:04:10;;;;;;;5.13;2.05;;;;;;;;;;4981510;28;20030;-79
2023/10/16 03:06:40;;;;;;;6.32;2.25;;;;;;;;;;4971925;28;20029;-79
2023/10/16 03:09:25;;;;;;;5.85;2.33;;;;;;;;;;4978713;28;20153;-78
2023/10/16 03:11:58;;;;;;;8.23;3.00;;;;;;;;;;4970142;28;20030;-78
2023/10/16 03:14:28;;;;;;;8.20;2.90;;;;;;;;;;4980408;28;20039;-79
2023/10/16 03:16:57;;;;;;;8.40;2.63;;;;;;;;;;4977087;28;20030;-78
2023/10/16 03:19:23;;;;;;;8.05;2.60;;;;;;;;;;4958098;28;20503;-78
2023/10/16 03:21:50;;;;;;;7.68;2.40;;;;;;;;;;4957893;28;20483;-78
2023/10/16 03:24:19;;;;;;;4.90;2.20;;;;;;;;;;4973862;28;20036;-78
2023/10/16 03:26:45;;;;;;;5.38;2.33;;;;;;;;;;4974686;28;20722;-79
2023/10/16 03:29:10;;;;;;;6.47;2.30;;;;;;;;;;4984600;28;20486;-79
2023/10/16 03:31:39;;;;;;;7.35;2.42;;;;;;;;;;4968520;28;20044;-78
2023/10/16 03:34:05;;;;;;;8.52;2.40;;;;;;;;;;4971618;28;20025;-79
2023/10/16 03:36:31;;;;;;;4.97;2.40;;;;;;;;;;4972974;28;20407;-79
2023/10/16 03:38:57;;;;;;;6.72;2.22;;;;;;;;;;4971997;28;20036;-77
2023/10/16 03:43:49;;;;;;;8.52;2.35;;;;;;;;;;4981054;28;20034;-77
2023/10/16 03:46:14;;;;;;;7.25;2.20;;;;;;;;;;4961203;28;20022;-78
2023/10/16 03:48:40;;;;;;;6.00;2.30;;;;;;;;;;4987266;28;20093;-78
2023/10/16 03:51:06;;;;;;;5.93;2.50;;;;;;;;;;4972940;28;20034;-78
2023/10/16 03:53:32;;;;;;;8.40;3.20;;;;;;;;;;4985246;28;20036;-81
2023/10/16 03:55:58;;;;;;;7.03;3.53;;;;;;;;;;4973838;28;20026;-77
2023/10/16 03:58:26;;;;;;;6.68;2.50;;;;;;;;;;4974715;28;20018;-79
2023/10/16 04:00:56;;;;;;;5.93;2.20;;;;;;;;;;4973974;28;20030;-78
2023/10/16 04:03:23;;;;;;;6.57;2.30;;;;;;;;;;4978044;28;20049;-80
2023/10/16 04:05:50;;;;;;;10.35;2.38;;;;;;;;;;4974552;28;20665;-77
2023/10/16 04:08:26;;;;;;;6.00;2.05;;;;;;;;;;4969307;28;20094;-78
2023/10/16 04:10:56;;;;;;;8.05;2.22;;;;;;;;;;4980183;28;20037;-78
2023/10/16 04:13:31;;;;;;;6.05;2.50;;;;;;;;;;4969537;28;20209;-77
2023/10/16 04:16:09;;;;;;;5.25;2.08;;;;;;;;;;4974981;28;20033;-77
2023/10/16 04:18:39;;;;;;;8.32;2.10;;;;;;;;;;4980628;28;20034;-79
2023/10/16 04:29:25;;;;;;;5.22;1.88;;;;;;;;;;4974073;28;19996;-79
2023/10/16 04:37:29;;;;;;;10.57;2.65;;;;;;;;;;4968776;28;20038;-78
2023/10/16 04:45:24;;;;;;;7.25;2.20;;;;;;;;;;4970544;28;20133;-78
2023/10/16 05:03:23;;;;;;;5.30;2.15;;;;;;;;;;4972482;28;20065;-78
2023/10/16 05:08:49;;;;;;;6.28;2.30;;;;;;;;;;4980111;28;20040;-79
2023/10/16 05:11:27;;;;;;;8.50;2.75;;;;;;;;;;4981394;28;20041;-78
2023/10/16 06:14:47;;;;;;;6.57;2.28;;;;;;;;;;4981859;28;20076;-76
2023/10/16 06:17:15;;;;;;;9.63;2.50;;;;;;;;;;4983880;28;20129;-76
2023/10/16 06:19:42;;;;;;;7.95;2.30;;;;;;;;;;4988489;28;20553;-75
2023/10/16 06:22:09;;;;;;;8.05;2.67;;;;;;;;;;4987090;28;20036;-76
2023/10/16 06:24:47;;;;;;;8.32;2.30;;;;;;;;;;4988617;28;20033;-75
2023/10/16 06:27:19;;;;;;;8.30;2.60;;;;;;;;;;4969897;28;20049;-75
2023/10/16 06:29:51;;;;;;;8.02;2.30;;;;;;;;;;4979711;28;20405;-74
2023/10/16 06:32:21;;;;;;;9.38;2.60;;;;;;;;;;4992399;28;20030;-75
2023/10/16 06:34:57;;;;;;;6.10;2.25;;;;;;;;;;4974439;28;20026;-74
2023/10/16 06:37:27;;;;;;;7.40;2.03;;;;;;;;;;4973218;28;20022;-75
2023/10/16 06:39:54;;;;;;;7.82;2.40;;;;;;;;;;4963947;28;20045;-76
2023/10/16 06:42:23;;;;;;;7.45;2.10;;;;;;;;;;4991191;28;20709;-76
2023/10/16 06:44:56;;;;;;;7.57;2.05;;;;;;;;;;4975091;28;20074;-75
2023/10/16 06:47:23;;;;;;;5.70;2.08;;;;;;;;;;5000839;28;20066;-76
2023/10/16 06:49:52;;;;;;;6.93;2.20;;;;;;;;;;5000398;28;20073;-75
2023/10/16 06:52:18;;;;;;;6.00;2.10;;;;;;;;;;4994061;28;20076;-76
2023/10/16 06:54:44;;;;;;;5.80;2.25;;;;;;;;;;4994441;28;20030;-75
2023/10/16 06:57:12;;;;;;;7.55;1.98;;;;;;;;;;4977402;28;20771;-76
2023/10/16 06:59:45;;;;;;;4.38;1.92;;;;;;;;;;4992123;28;20022;-76
2023/10/16 07:02:21;;;;;;;6.05;2.20;;;;;;;;;;4980356;28;20641;-76
2023/10/16 07:04:47;;;;;;;;;;;;;;;;;;4994763;28;20030;-75
2023/10/16 07:07:16;;;;;;;7.38;1.85;;;;;;;;;;4989545;28;20156;-76
2023/10/16 07:09:47;;;;;;;7.20;1.98;;;;;;;;;;4992392;28;20105;-76
2023/10/16 07:12:13;;;;;;;8.48;2.05;;;;;;;;;;4985047;28;20026;-76
2023/10/16 07:14:39;;;;;;;3.85;1.85;;;;;;;;;;4973922;28;20387;-76
2023/10/16 07:17:04;;;;;;;6.78;2.10;;;;;;;;;;4986445;28;20041;-75
2023/10/16 07:19:29;;;;;;;9.27;2.17;;;;;;;;;;4987855;28;20364;-76
2023/10/16 07:21:56;;;;;;;6.50;1.95;;;;;;;;;;4983076;28;20652;-75
2023/10/16 07:24:22;;;;;;;6.78;2.33;;;;;;;;;;4985573;28;20021;-75
2023/10/16 07:26:48;;;;;;;6.35;2.15;;;;;;;;;;4975175;28;20022;-75
2023/10/16 07:29:13;;;;;;;9.98;1.75;;;;;;;;;;4978595;28;20032;-76
2023/10/16 07:31:38;;;;;;;6.40;2.30;;;;;;;;;;4987190;28;20025;-75
2023/10/16 07:34:05;;;;;;;9.32;2.00;;;;;;;;;;4979125;28;20160;-76
2023/10/16 07:36:31;;;;;;;5.07;1.90;;;;;;;;;;4981476;28;20131;-75
2023/10/16 07:38:57;;;;;;;7.07;1.98;;;;;;;;;;4987516;28;20065;-75
2023/10/16 07:41:26;;;;;;;5.72;2.10;;;;;;;;;;4968465;28;20732;-77
2023/10/16 07:43:56;;;;;;;6.53;2.10;;;;;;;;;;4985004;28;20114;-75
2023/10/16 07:46:28;;;;;;;7.05;2.42;;;;;;;;;;4985634;28;20045;-75
2023/10/16 07:48:56;;;;;;;10.38;2.47;;;;;;;;;;4983210;28;20040;-75
2023/10/16 07:51:25;;;;;;;8.10;1.95;;;;;;;;;;4988227;28;20029;-75
2023/10/16 07:53:51;;;;;;;6.10;2.08;;;;;;;;;;4980646;28;20508;-75
2023/10/16 07:58:55;;;;;;;4.97;1.60;;;;;;;;;;4981087;28;20037;-74
2023/10/16 08:01:36;;;;;;;6.13;2.10;;;;;;;;;;4979259;28;20480;-75
2023/10/16 08:04:06;;;;;;;8.30;2.10;;;;;;;;;;4986090;28;20033;-75
2023/10/16 08:06:39;;;;;;;8.73;2.50;;;;;;;;;;4986180;28;20423;-75
2023/10/16 08:11:56;;;;;;;7.47;2.00;;;;;;;;;;4996514;28;20030;-76
2023/10/16 08:14:23;;;;;;;5.43;1.83;;;;;;;;;;4993817;28;20025;-75
2023/10/16 08:16:49;;;;;;;4.80;1.70;;;;;;;;;;4994249;28;20093;-74
2023/10/16 08:19:24;;;;;;;5.30;2.03;;;;;;;;;;4989431;28;20482;-75
2023/10/16 08:21:50;;;;;;;5.10;1.70;;;;;;;;;;4986366;28;20303;-75
2023/10/16 08:24:16;;;;;;;6.40;1.83;;;;;;;;;;4989311;28;20832;-75
2023/10/16 08:26:42;;;;;;;4.78;1.80;;;;;;;;;;4979683;28;20108;-75
2023/10/16 08:29:17;;;;;;;5.93;1.90;;;;;;;;;;4983909;28;20101;-74
2023/10/16 08:31:44;;;;;;;4.50;1.60;;;;;;;;;;4982467;28;20044;-77
2023/10/16 08:34:21;;;;;;;5.82;1.88;;;;;;;;;;4991204;28;20037;-77
2023/10/16 08:36:50;;;;;;;5.07;1.80;;;;;;;;;;4989696;28;20026;-77
2023/10/16 08:39:17;;;;;;;4.03;1.75;;;;;;;;;;4988800;28;20109;-77
2023/10/16 08:41:43;;;;;;;5.38;1.80;;;;;;;;;;4986580;28;20026;-76
2023/10/16 08:44:14;;;;;;;6.88;2.00;;;;;;;;;;4984004;28;20022;-77
2023/10/16 08:46:53;;;;;;;5.25;1.77;;;;;;;;;;4992212;28;20029;-76
2023/10/16 08:49:22;;;;;;;5.50;1.60;;;;;;;;;;4996586;28;20037;-77
2023/10/16 08:51:53;;;;;;;5.47;1.90;;;;;;;;;;4995544;28;20113;-76
2023/10/16 08:57:07;;;;;;;5.03;1.70;;;;;;;;;;4979114;28;20131;-76
2023/10/16 08:59:33;;;;;;;3.22;1.60;;;;;;;;;;4980014;28;20096;-77
2023/10/16 09:02:01;;;;;;;5.20;1.70;;;;;;;;;;4984703;28;20042;-76
2023/10/16 09:04:27;;;;;;;3.97;1.60;;;;;;;;;;4991036;28;20344;-76
2023/10/16 09:06:54;;;;;;;3.20;1.60;;;;;;;;;;4995036;28;20033;-76
2023/10/16 09:09:20;;;;;;;5.07;1.45;;;;;;;;;;4989615;28;20018;-77
2023/10/16 09:11:47;;;;;;;8.45;1.60;;;;;;;;;;4993355;28;20026;-77
2023/10/16 09:14:20;;;;;;;4.35;1.63;;;;;;;;;;4988325;28;20641;-77
2023/10/16 09:16:52;;;;;;;5.38;1.70;;;;;;;;;;4988338;28;20761;-76
2023/10/16 09:19:18;;;;;;;3.97;1.60;;;;;;;;;;4985168;28;20022;-77
2023/10/16 09:21:44;;;;;;;4.90;1.40;;;;;;;;;;4992791;28;20033;-76
2023/10/16 09:24:13;;;;;;;3.45;1.60;;;;;;;;;;4986618;28;20068;-78
2023/10/16 09:26:47;;;;;;;4.30;1.67;;;;;;;;;;4976320;28;20034;-77
2023/10/16 09:29:16;;;;;;;4.38;1.70;;;;;;;;;;4983282;28;20033;-76
2023/10/16 09:31:45;;;;;;;3.30;1.52;;;;;;;;;;4998955;28;20086;-76
2023/10/16 09:34:17;;;;;;;4.57;1.60;;;;;;;;;;4990806;28;20041;-78
2023/10/16 09:37:13;;;;;;;4.93;1.80;;;;;;;;;;4986910;28;20034;-76
2023/10/16 09:39:35;;;;;;;8.30;1.83;;;;;;;;;;4989851;28;20541;-76
2023/10/16 09:42:06;;;;;;;5.95;1.60;;;;;;;;;;4993990;28;20025;-75
2023/10/16 09:44:38;;;;;;;3.75;1.60;;;;;;;;;;4991530;28;20533;-74
2023/10/16 09:50:16;;;;;;;3.28;1.38;;;;;;;;;;4946657;28;20101;-75
2023/10/16 09:52:45;;;;;;;4.47;1.60;;;;;;;;;;4973275;28;20026;-75
2023/10/16 09:55:12;;;;;;;4.82;1.45;;;;;;;;;;4983301;28;20021;-75
2023/10/16 09:57:46;;;;;;;6.88;1.70;;;;;;;;;;4963990;28;20089;-76
2023/10/16 10:02:51;;;;;;;7.18;1.60;;;;;;;;;;4989375;28;20045;-77
2023/10/16 10:05:21;;;;;;;5.70;1.70;;;;;;;;;;4990340;28;20022;-77
2023/10/16 10:07:47;;;;;;;4.57;1.60;;;;;;;;;;4974572;28;20537;-77
2023/10/16 10:13:15;;;;;;;5.45;1.70;;;;;;;;;;4940816;28;20043;-77
2023/10/16 10:15:49;;;;;;;5.75;1.70;;;;;;;;;;4991223;28;20046;-77
2023/10/16 10:18:32;;;;;;;2.83;1.35;;;;;;;;;;4986350;28;20058;-77
2023/10/16 10:20:58;;;;;;;5.57;1.60;;;;;;;;;;4983992;28;20026;-76
2023/10/16 10:23:25;;;;;;;3.58;1.38;;;;;;;;;;4989302;28;20072;-77
2023/10/16 10:25:54;;;;;;;3.90;1.42;;;;;;;;;;4993665;28;20117;-77
2023/10/16 10:28:22;;;;;;;2.97;1.52;;;;;;;;;;4976171;28;20040;-77
2023/10/16 10:30:50;;;;;;;3.72;1.40;;;;;;;;;;4969289;28;20789;-76
2023/10/16 10:33:57;;;;;;;6.53;1.83;;;;;;;;;;4990817;28;20037;-77
2023/10/16 10:36:39;;;;;;;4.45;1.45;;;;;;;;;;4956934;28;20494;-78
2023/10/16 10:39:20;;;;;;;3.15;1.50;;;;;;;;;;4981856;28;20084;-76
2023/10/16 10:41:54;;;;;;;3.40;1.30;;;;;;;;;;4994371;28;20105;-75
2023/10/16 10:44:28;;;;;;;3.63;1.58;;;;;;;;;;4987490;28;20049;-78
2023/10/16 10:46:54;;;;;;;5.07;1.92;;;;;;;;;;4986871;28;20123;-77
2023/10/16 10:49:33;;;;;;;4.35;1.60;;;;;;;;;;4986035;28;20101;-79
2023/10/16 10:52:12;;;;;;;4.50;1.52;;;;;;;;;;4983071;28;20568;-76
2023/10/16 10:54:48;;;;;;;3.97;1.45;;;;;;;;;;4987867;28;20649;-78
2023/10/16 10:57:24;;;;;;;5.15;1.52;;;;;;;;;;4978439;28;20752;-76
2023/10/16 10:59:55;;;;;;;;;;;;;;;;;;4960952;28;20054;-76
2023/10/16 11:04:59;;;;;;;4.70;1.20;;;;;;;;;;4988515;28;20026;-76
2023/10/16 11:07:28;;;;;;;5.38;1.40;;;;;;;;;;4984553;28;20125;-76
2023/10/16 11:09:57;;;;;;;4.70;1.30;;;;;;;;;;4984675;28;20756;-77
2023/10/16 11:12:26;;;;;;;4.30;1.40;;;;;;;;;;4985535;28;20026;-76
2023/10/16 11:14:53;;;;;;;2.88;1.40;;;;;;;;;;4982053;28;20288;-77
2023/10/16 11:17:36;;;;;;;3.05;1.30;;;;;;;;;;4979216;28;20105;-77
2023/10/16 11:22:43;;;;;;;3.30;1.40;;;;;;;;;;4982546;28;20030;-77
2023/10/16 11:25:12;;;;;;;3.55;1.33;;;;;;;;;;4975002;28;20022;-78
2023/10/16 11:27:41;;;;;;;2.75;1.20;;;;;;;;;;4968445;28;20033;-75
2023/10/16 11:30:18;;;;;;;3.92;1.35;;;;;;;;;;4963011;28;20149;-77
2023/10/16 11:32:46;;;;;;;3.17;1.38;;;;;;;;;;4989116;28;20042;-78
2023/10/16 11:35:14;;;;;;;2.67;1.20;;;;;;;;;;4979799;28;20041;-76
2023/10/16 11:37:43;;;;;;;2.85;1.30;;;;;;;;;;4972461;28;20028;-77
2023/10/16 11:43:19;;;;;;;3.80;1.50;;;;;;;;;;4914440;28;20904;-78
2023/10/16 11:45:53;;;;;;;2.78;1.30;;;;;;;;;;4962946;28;20465;-77
2023/10/16 11:51:10;;;;;;;3.15;1.30;;;;;;;;;;4981737;28;20330;-75
2023/10/16 11:53:37;;;;;;;21.42;1.67;;;;;;;;;;4992252;28;20033;-79
2023/10/16 11:56:03;;;;;;;4.47;1.20;;;;;;;;;;4983181;28;20123;-77
2023/10/16 11:58:31;;;;;;;3.65;1.30;;;;;;;;;;4986418;28;20030;-77
2023/10/16 12:01:07;;;;;;;3.08;1.30;;;;;;;;;;4980522;28;20025;-77
2023/10/16 12:03:33;;;;;;;3.13;1.30;;;;;;;;;;4990560;28;20042;-78
2023/10/16 12:05:59;;;;;;;3.95;1.23;;;;;;;;;;4967939;28;20036;-75
2023/10/16 12:08:24;;;;;;;7.72;1.50;;;;;;;;;;4989769;28;20022;-76
2023/10/16 12:10:50;;;;;;;4.25;1.27;;;;;;;;;;4991972;28;20427;-75
2023/10/16 12:13:16;;;;;;;4.97;1.30;;;;;;;;;;4983657;28;20022;-77
2023/10/16 12:15:46;;;;;;;3.38;1.35;;;;;;;;;;4991746;28;20446;-77
2023/10/16 12:18:12;;;;;;;3.92;1.40;;;;;;;;;;4988553;28;20052;-77
2023/10/16 12:20:41;;;;;;;3.55;1.17;;;;;;;;;;4973658;28;20061;-77
2023/10/16 12:23:07;;;;;;;11.52;1.20;;;;;;;;;;4961667;28;20025;-76
2023/10/16 12:25:34;;;;;;;3.05;1.30;;;;;;;;;;4986642;28;20026;-76
2023/10/16 12:28:00;;;;;;;3.05;1.30;;;;;;;;;;4980566;28;20030;-78
2023/10/16 12:30:27;;;;;;;4.85;1.30;;;;;;;;;;4979199;28;20088;-77
2023/10/16 12:32:54;;;;;;;3.72;1.30;;;;;;;;;;4968766;28;20029;-75
2023/10/16 12:35:22;;;;;;;5.05;1.40;;;;;;;;;;4985947;28;20033;-76
2023/10/16 12:37:48;;;;;;;3.20;1.33;;;;;;;;;;4976714;28;20053;-78
2023/10/16 12:40:34;;;;;;;5.15;1.70;;;;;;;;;;4970772;28;20030;-76
2023/10/16 12:43:00;;;;;;;2.15;1.17;;;;;;;;;;4970620;28;20030;-77
2023/10/16 12:45:27;;;;;;;2.63;1.20;;;;;;;;;;4998658;28;20549;-76
2023/10/16 12:47:54;;;;;;;3.05;1.30;;;;;;;;;;4989106;28;20041;-76
2023/10/16 12:50:23;;;;;;;3.15;1.35;;;;;;;;;;4973253;28;20054;-76
2023/10/16 12:52:53;;;;;;;3.80;1.40;;;;;;;;;;4991743;28;20037;-76
2023/10/16 12:55:22;;;;;;;2.65;1.20;;;;;;;;;;4984815;28;20128;-80
2023/10/16 12:57:49;;;;;;;3.45;1.20;;;;;;;;;;4995442;28;20033;-77
2023/10/16 13:00:18;;;;;;;4.85;1.13;;;;;;;;;;4967915;28;20049;-77
2023/10/16 13:02:51;;;;;;;2.30;1.15;;;;;;;;;;4987434;28;20094;-75
2023/10/16 13:05:24;;;;;;;2.35;1.20;;;;;;;;;;4989452;28;20159;-76
2023/10/16 13:07:50;;;;;;;2.75;1.20;;;;;;;;;;4992375;28;20018;-78
2023/10/16 13:10:20;;;;;;;3.03;1.38;;;;;;;;;;4970285;28;20785;-79
2023/10/16 13:12:46;;;;;;;5.40;1.75;;;;;;;;;;4994944;28;20382;-77
2023/10/16 13:15:15;;;;;;;11.73;2.22;;;;;;;;;;4965525;28;20018;-78
2023/10/16 13:17:42;;;;;;;8.50;1.98;;;;;;;;;;4989247;28;20640;-77
2023/10/16 13:20:17;;;;;;;3.65;1.20;;;;;;;;;;4989664;28;20022;-77
2023/10/16 13:22:49;;;;;;;8.10;1.65;;;;;;;;;;4984572;28;20029;-77
2023/10/16 13:25:16;;;;;;;2.60;1.10;;;;;;;;;;4989758;28;20100;-79
2023/10/16 13:27:44;;;;;;;4.78;1.48;;;;;;;;;;4999583;28;20018;-79
2023/10/16 13:30:11;;;;;;;3.38;1.48;;;;;;;;;;4994627;28;20274;-77
2023/10/16 13:32:41;;;;;;;3.10;1.40;;;;;;;;;;5001628;28;20033;-76
2023/10/16 13:35:12;;;;;;;3.08;1.23;;;;;;;;;;4992228;28;20037;-78
2023/10/16 13:37:44;;;;;;;2.05;1.10;;;;;;;;;;5003525;28;20022;-77
2023/10/16 13:40:20;;;;;;;3.58;1.20;;;;;;;;;;4997325;28;20402;-78
2023/10/16 13:42:54;;;;;;;2.20;1.15;;;;;;;;;;4999873;28;20501;-84
2023/10/16 13:45:21;;;;;;;4.03;1.20;;;;;;;;;;5003154;28;20033;-82
2023/10/16 13:47:49;;;;;;;4.35;1.30;;;;;;;;;;5001569;28;20026;-82
2023/10/16 13:50:16;;;;;;;2.58;1.17;;;;;;;;;;5002231;28;20025;-78
2023/10/16 13:52:43;;;;;;;4.43;1.10;;;;;;;;;;5006486;28;20030;-76
2023/10/16 13:55:13;;;;;;;5.35;1.23;;;;;;;;;;4987893;28;20026;-83
2023/10/16 13:57:42;;;;;;;2.83;1.20;;;;;;;;;;4997909;28;20030;-82
2023/10/16 14:00:09;;;;;;;3.30;1.20;;;;;;;;;;4999692;28;20037;-79
2023/10/16 14:02:36;;;;;;;5.90;1.30;;;;;;;;;;5008908;28;20042;-76
2023/10/16 14:05:06;;;;;;;2.47;1.20;;;;;;;;;;4989948;28;20033;-77
2023/10/16 14:07:32;;;;;;;2.28;1.10;;;;;;;;;;4994072;28;20029;-77
2023/10/16 14:09:57;;;;;;;2.75;1.20;;;;;;;;;;4981341;28;20053;-78
2023/10/16 14:12:25;;;;;;;9.43;1.35;;;;;;;;;;4982294;28;20261;-76
2023/10/16 14:14:51;;;;;;;8.82;1.40;;;;;;;;;;4999374;28;20018;-76
2023/10/16 14:17:17;;;;;;;6.32;1.50;;;;;;;;;;4999135;28;20041;-75
2023/10/16 14:19:47;;;;;;;3.25;1.15;;;;;;;;;;5003433;28;20010;-75
2023/10/16 14:22:15;;;;;;;4.40;1.20;;;;;;;;;;4998568;28;20097;-77
2023/10/16 14:24:44;;;;;;;2.35;1.10;;;;;;;;;;4999470;28;20045;-75
2023/10/16 14:27:14;;;;;;;5.07;1.40;;;;;;;;;;5002227;28;20052;-76
2023/10/16 14:29:44;;;;;;;2.58;1.10;;;;;;;;;;5000823;28;20041;-76
2023/10/16 14:32:10;;;;;;;4.32;1.65;;;;;;;;;;4996778;28;20048;-76
2023/10/16 14:34:36;;;;;;;2.72;1.20;;;;;;;;;;4993253;28;20089;-78
2023/10/16 14:37:05;;;;;;;3.08;1.23;;;;;;;;;;4973812;28;20116;-79
2023/10/16 14:39:31;;;;;;;5.18;1.17;;;;;;;;;;5002481;28;20026;-77
2023/10/16 14:42:01;;;;;;;4.05;1.15;;;;;;;;;;4984707;28;20092;-76
2023/10/16 14:44:27;;;;;;;2.63;1.20;;;;;;;;;;4991448;28;20101;-76
2023/10/16 14:46:56;;;;;;;4.43;1.30;;;;;;;;;;4993046;28;20033;-76
2023/10/16 14:49:25;;;;;;;2.33;1.15;;;;;;;;;;4999536;28;20025;-78
2023/10/16 14:51:51;;;;;;;2.25;1.00;;;;;;;;;;4989887;28;20022;-76
2023/10/16 14:54:16;;;;;;;2.70;1.20;;;;;;;;;;5010277;28;20261;-77
2023/10/16 14:56:44;;;;;;;3.33;1.35;;;;;;;;;;5004263;28;20053;-79
2023/10/16 14:59:32;;;;;;;3.15;1.10;;;;;;;;;;4960626;28;20146;-77
2023/10/16 15:01:58;;;;;;;6.68;1.35;;;;;;;;;;5001014;28;20044;-76
2023/10/16 15:04:24;;;;;;;16.50;1.60;;;;;;;;;;4994080;28;20322;-77
2023/10/16 15:06:50;;;;;;;13.32;1.30;;;;;;;;;;4969024;28;20109;-76
2023/10/16 15:09:18;;;;;;;3.50;1.20;;;;;;;;;;4998956;28;20440;-77
2023/10/16 15:11:49;;;;;;;2.90;1.27;;;;;;;;;;5003125;28;20036;-77
2023/10/16 15:14:15;;;;;;;4.85;1.67;;;;;;;;;;5004630;28;20040;-79
2023/10/16 15:16:40;;;;;;;3.60;1.40;;;;;;;;;;5005625;28;20029;-77
2023/10/16 15:19:11;;;;;;;3.13;1.38;;;;;;;;;;4985906;28;20030;-78
2023/10/16 15:21:38;;;;;;;3.72;1.30;;;;;;;;;;5004596;28;20261;-78
2023/10/16 15:24:04;;;;;;;2.63;1.10;;;;;;;;;;4988708;28;20098;-77
2023/10/16 15:26:32;;;;;;;4.15;1.40;;;;;;;;;;4994561;28;20030;-77
2023/10/16 15:29:00;;;;;;;2.70;1.17;;;;;;;;;;4994386;28;20029;-77
2023/10/16 15:31:25;;;;;;;5.85;1.20;;;;;;;;;;5004249;28;20033;-77
2023/10/16 15:33:50;;;;;;;4.90;1.40;;;;;;;;;;4993541;28;20122;-77
2023/10/16 15:36:17;;;;;;;2.60;1.20;;;;;;;;;;4978498;28;20138;-80
2023/10/16 15:38:43;;;;;;;4.38;1.30;;;;;;;;;;4999782;28;20088;-79
2023/10/16 15:41:11;;;;;;;3.75;1.27;;;;;;;;;;5001406;28;20045;-77
2023/10/16 15:43:37;;;;;;;5.45;1.30;;;;;;;;;;5000849;28;20064;-77
2023/10/16 15:46:03;;;;;;;2.20;1.10;;;;;;;;;;5004173;28;20201;-77
2023/10/16 15:48:29;;;;;;;4.75;1.42;;;;;;;;;;4998670;28;20330;-79
2023/10/16 15:50:55;;;;;;;4.38;1.15;;;;;;;;;;4999063;28;20034;-75
2023/10/16 15:53:21;;;;;;;4.20;1.52;;;;;;;;;;4997326;28;20981;-76
2023/10/16 15:55:46;;;;;;;3.45;1.25;;;;;;;;;;4979378;28;20040;-77
2023/10/16 15:58:12;;;;;;;2.45;1.33;;;;;;;;;;4995999;28;20026;-84
2023/10/16 16:00:38;;;;;;;3.15;1.10;;;;;;;;;;4994482;28;20084;-79
2023/10/16 16:03:08;;;;;;;3.92;1.30;;;;;;;;;;4971063;28;20117;-75
2023/10/16 16:05:38;;;;;;;5.38;1.30;;;;;;;;;;4977193;28;20081;-77
2023/10/16 16:08:05;;;;;;;2.90;1.20;;;;;;;;;;4967757;28;20022;-76
2023/10/16 16:10:32;;;;;;;5.75;1.38;;;;;;;;;;4975227;28;20042;-79
2023/10/16 16:13:01;;;;;;;4.00;1.42;;;;;;;;;;4983006;28;20025;-76
2023/10/16 16:15:27;;;;;;;3.47;1.33;;;;;;;;;;4972894;28;20035;-77
2023/10/16 16:18:00;;;;;;;2.90;1.30;;;;;;;;;;4980062;28;20089;-77
2023/10/16 16:20:26;;;;;;;2.90;1.40;;;;;;;;;;4987118;28;20022;-77
2023/10/16 16:22:52;;;;;;;5.00;1.40;;;;;;;;;;4977800;28;20058;-76
2023/10/16 16:25:18;;;;;;;3.00;1.30;;;;;;;;;;4985550;28;20030;-77
2023/10/16 16:27:47;;;;;;;3.30;1.40;;;;;;;;;;4982109;28;20018;-76
2023/10/16 16:30:16;;;;;;;4.53;1.20;;;;;;;;;;4982488;28;20087;-77
2023/10/16 16:32:42;;;;;;;4.82;1.20;;;;;;;;;;4987869;28;20290;-78
2023/10/16 16:35:07;;;;;;;4.03;1.40;;;;;;;;;;4969378;28;20038;-84
2023/10/16 16:37:33;;;;;;;4.43;1.30;;;;;;;;;;4980407;28;20026;-83
2023/10/16 16:40:06;;;;;;;6.10;1.33;;;;;;;;;;4978447;28;20046;-77
2023/10/16 16:42:31;;;;;;;10.65;1.73;;;;;;;;;;4975336;28;20060;-76
2023/10/16 16:44:57;;;;;;;7.32;1.60;;;;;;;;;;4979525;28;20106;-76
2023/10/16 16:47:22;;;;;;;7.28;1.50;;;;;;;;;;4985849;28;20030;-75
2023/10/16 16:49:47;;;;;;;4.18;1.40;;;;;;;;;;4982131;28;20029;-75
2023/10/16 16:52:13;;;;;;;3.03;1.33;;;;;;;;;;4972645;28;20023;-75
2023/10/16 16:54:38;;;;;;;5.28;1.70;;;;;;;;;;4994924;28;20263;-75
2023/10/16 16:57:04;;;;;;;12.40;1.75;;;;;;;;;;4980865;28;20018;-75
2023/10/16 16:59:29;;;;;;;9.55;1.50;;;;;;;;;;4982586;28;20251;-77
2023/10/16 17:01:57;;;;;;;14.77;1.58;;;;;;;;;;4978723;28;20045;-76
2023/10/16 17:04:23;;;;;;;3.50;1.50;;;;;;;;;;4996466;28;20030;-77